createdAt,value
2018-03-02T00:00:40.066Z,38.60
2018-03-02T00:03:08.386Z,35.47
2018-03-02T00:05:36.728Z,37.27
2018-03-02T00:08:05.048Z,37.13
2018-03-02T00:10:33.377Z,34.70
2018-03-02T00:13:01.715Z,37.77
2018-03-02T00:15:30.040Z,38.10
2018-03-02T00:17:58.374Z,35.30
2018-03-02T00:20:26.715Z,35.20
2018-03-02T00:22:55.044Z,36.97
2018-03-02T00:25:23.375Z,37.33
2018-03-02T00:27:51.705Z,37.73
2018-03-02T00:30:20.027Z,33.80
2018-03-02T00:32:48.354Z,36.90
2018-03-02T00:35:16.682Z,36.70
2018-03-02T00:37:45.886Z,37.50
2018-03-02T00:40:14.222Z,35.37
2018-03-02T00:42:42.555Z,36.83
2018-03-02T00:45:10.945Z,36.10
2018-03-02T00:47:39.256Z,36.43
2018-03-02T00:50:07.596Z,38.33
2018-03-02T00:52:35.933Z,36.07
2018-03-02T00:55:04.251Z,37.30
2018-03-02T00:57:32.589Z,37.80
2018-03-02T01:00:00.905Z,39.07
2018-03-02T01:02:29.218Z,40.27
2018-03-02T01:04:57.622Z,37.60
2018-03-02T01:07:25.956Z,37.50
2018-03-02T01:09:54.271Z,38.37
2018-03-02T01:12:22.618Z,35.83
2018-03-02T01:14:50.943Z,38.30
2018-03-02T01:17:19.292Z,36.60
2018-03-02T01:19:47.624Z,35.27
2018-03-02T01:22:15.946Z,37.93
2018-03-02T01:24:44.269Z,38.40
2018-03-02T01:27:12.772Z,39.50
2018-03-02T01:29:41.085Z,37.30
2018-03-02T01:32:09.421Z,39.37
2018-03-02T01:34:37.763Z,38.37
2018-03-02T01:37:06.131Z,39.57
2018-03-02T01:39:34.552Z,38.53
2018-03-02T01:42:02.876Z,40.33
2018-03-02T01:44:31.206Z,37.00
2018-03-02T01:47:00.551Z,37.60
2018-03-02T01:49:28.954Z,40.43
2018-03-02T01:51:57.290Z,39.73
2018-03-02T01:54:25.627Z,39.00
2018-03-02T01:56:53.966Z,39.70
2018-03-02T01:59:22.365Z,41.53
2018-03-02T02:01:50.696Z,40.53
2018-03-02T02:04:19.018Z,41.40
2018-03-02T02:06:47.432Z,40.33
2018-03-02T02:09:15.766Z,39.77
2018-03-02T02:11:44.105Z,40.80
2018-03-02T02:14:12.438Z,39.77
2018-03-02T02:16:40.769Z,39.47
2018-03-02T02:19:09.161Z,40.43
2018-03-02T02:21:37.479Z,43.63
2018-03-02T02:24:05.811Z,41.20
2018-03-02T02:26:34.141Z,40.83
2018-03-02T02:29:02.470Z,39.63
2018-03-02T02:31:30.814Z,39.40
2018-03-02T02:33:59.178Z,40.60
2018-03-02T02:36:27.502Z,41.40
2018-03-02T02:38:55.838Z,39.43
2018-03-02T02:41:24.175Z,41.37
2018-03-02T02:43:52.495Z,41.07
2018-03-02T02:46:20.827Z,40.93
2018-03-02T02:48:49.233Z,40.73
2018-03-02T02:51:17.539Z,40.40
2018-03-02T02:53:45.877Z,41.30
2018-03-02T02:56:14.202Z,39.20
2018-03-02T02:58:42.535Z,41.00
2018-03-02T03:01:10.872Z,40.30
2018-03-02T03:03:39.213Z,41.43
2018-03-02T03:06:07.593Z,40.53
2018-03-02T03:08:35.913Z,39.80
2018-03-02T03:11:04.242Z,38.53
2018-03-02T03:13:32.574Z,42.03
2018-03-02T03:16:01.002Z,41.10
2018-03-02T03:18:29.318Z,42.10
2018-03-02T03:20:57.660Z,39.40
2018-03-02T03:23:25.990Z,41.47
2018-03-02T03:25:54.322Z,42.43
2018-03-02T03:28:22.660Z,43.77
2018-03-02T03:30:51.010Z,44.00
2018-03-02T03:33:19.347Z,40.40
2018-03-02T03:35:47.694Z,43.40
2018-03-02T03:38:16.017Z,44.60
2018-03-02T03:40:44.379Z,42.77
2018-03-02T03:43:12.706Z,41.87
2018-03-02T03:45:41.050Z,44.20
2018-03-02T03:48:09.379Z,40.03
2018-03-02T03:50:37.727Z,39.37
2018-03-02T03:53:06.046Z,41.23
2018-03-02T03:55:34.405Z,43.70
2018-03-02T03:58:02.822Z,41.87
2018-03-02T04:00:31.134Z,39.70
2018-03-02T04:02:59.474Z,42.97
2018-03-02T04:05:27.817Z,43.60
2018-03-02T04:07:56.142Z,40.57
2018-03-02T04:10:24.477Z,42.20
2018-03-02T04:12:52.821Z,43.60
2018-03-02T04:15:21.159Z,42.80
2018-03-02T04:17:49.484Z,43.50
2018-03-02T04:20:17.836Z,42.77
2018-03-02T04:22:46.297Z,43.47
2018-03-02T04:25:14.732Z,42.83
2018-03-02T04:27:43.078Z,43.33
2018-03-02T04:30:11.421Z,41.33
2018-03-02T04:32:39.748Z,47.23
2018-03-02T04:35:08.150Z,43.67
2018-03-02T04:37:36.483Z,42.77
2018-03-02T04:40:04.923Z,45.40
2018-03-02T04:42:33.326Z,43.20
2018-03-02T04:45:01.702Z,42.60
2018-03-02T04:47:30.018Z,41.27
2018-03-02T04:49:58.435Z,42.90
2018-03-02T04:52:26.803Z,42.60
2018-03-02T04:54:55.133Z,42.40
2018-03-02T04:57:23.480Z,45.73
2018-03-02T04:59:51.804Z,42.03
2018-03-02T05:02:20.134Z,43.13
2018-03-02T05:04:48.525Z,41.07
2018-03-02T05:07:16.838Z,41.73
2018-03-02T05:09:45.174Z,42.80
2018-03-02T05:12:13.519Z,45.10
2018-03-02T05:14:41.860Z,44.27
2018-03-02T05:17:10.195Z,45.87
2018-03-02T05:19:38.538Z,42.83
2018-03-02T05:22:06.866Z,44.67
2018-03-02T05:24:35.201Z,45.00
2018-03-02T05:27:03.535Z,39.43
2018-03-02T05:29:31.961Z,42.17
2018-03-02T05:32:00.381Z,44.30
2018-03-02T05:34:28.761Z,43.57
2018-03-02T05:36:57.085Z,42.83
2018-03-02T05:39:25.432Z,41.33
2018-03-02T05:41:53.750Z,43.50
2018-03-02T05:44:22.081Z,45.37
2018-03-02T05:46:50.426Z,45.10
2018-03-02T05:49:18.770Z,43.27
2018-03-02T05:51:47.091Z,45.53
2018-03-02T05:54:15.430Z,43.93
2018-03-02T05:56:43.774Z,43.47
2018-03-02T05:59:12.106Z,43.90
2018-03-02T06:01:40.442Z,47.10
2018-03-02T06:04:08.801Z,45.57
2018-03-02T06:06:37.133Z,44.40
2018-03-02T06:09:05.468Z,45.90
2018-03-02T06:11:33.885Z,46.37
2018-03-02T06:14:02.209Z,46.17
2018-03-02T06:16:30.692Z,45.33
2018-03-02T06:18:58.979Z,41.20
2018-03-02T06:21:27.302Z,44.17
2018-03-02T06:23:55.660Z,44.80
2018-03-02T06:26:23.995Z,45.57
2018-03-02T06:28:52.334Z,48.23
2018-03-02T06:31:20.685Z,46.30
2018-03-02T06:33:49.034Z,43.50
2018-03-02T06:36:17.362Z,45.77
2018-03-02T06:38:45.720Z,45.17
2018-03-02T06:41:14.068Z,45.30
2018-03-02T06:43:42.399Z,41.90
2018-03-02T06:46:10.747Z,43.10
2018-03-02T06:48:39.096Z,44.23
2018-03-02T06:51:07.445Z,45.57
2018-03-02T06:53:35.812Z,47.30
2018-03-02T06:56:04.150Z,47.07
2018-03-02T06:58:32.497Z,46.67
2018-03-02T07:01:00.842Z,42.77
2018-03-02T07:03:29.202Z,42.70
2018-03-02T07:05:57.701Z,44.53
2018-03-02T07:08:26.055Z,44.50
2018-03-02T07:10:54.400Z,44.50
2018-03-02T07:13:22.826Z,47.20
2018-03-02T07:15:51.190Z,44.60
2018-03-02T07:18:19.523Z,44.63
2018-03-02T07:20:47.849Z,44.80
2018-03-02T07:23:16.199Z,45.50
2018-03-02T07:25:44.527Z,43.30
2018-03-02T07:28:12.858Z,46.63
2018-03-02T07:30:41.197Z,47.97
2018-03-02T07:33:09.536Z,46.27
2018-03-02T07:35:37.871Z,43.80
2018-03-02T07:38:06.205Z,46.80
2018-03-02T07:40:34.542Z,47.17
2018-03-02T07:43:02.878Z,47.33
2018-03-02T07:45:31.214Z,44.83
2018-03-02T07:47:59.546Z,45.20
2018-03-02T07:50:27.887Z,44.10
2018-03-02T07:52:56.230Z,43.70
2018-03-02T07:55:24.576Z,43.10
2018-03-02T07:57:52.903Z,45.27
2018-03-02T08:00:21.246Z,41.00
2018-03-02T08:02:49.629Z,43.30
2018-03-02T08:05:17.957Z,42.30
2018-03-02T08:07:46.311Z,41.60
2018-03-02T08:10:14.643Z,41.90
2018-03-02T08:12:42.966Z,42.03
2018-03-02T08:15:11.295Z,40.90
2018-03-02T08:17:39.627Z,43.30
2018-03-02T08:20:07.950Z,38.50
2018-03-02T08:22:36.291Z,42.00
2018-03-02T08:25:04.622Z,42.07
2018-03-02T08:27:32.962Z,43.10
2018-03-02T08:30:01.330Z,45.77
2018-03-02T08:32:29.672Z,41.23
2018-03-02T08:34:57.987Z,41.70
2018-03-02T08:37:26.325Z,43.77
2018-03-02T08:39:54.657Z,42.40
2018-03-02T08:42:22.989Z,42.67
2018-03-02T08:44:51.323Z,42.67
2018-03-02T08:47:19.653Z,43.43
2018-03-02T08:49:47.991Z,42.33
2018-03-02T08:52:16.321Z,40.77
2018-03-02T08:54:44.707Z,43.50
2018-03-02T08:57:13.090Z,41.73
2018-03-02T08:59:41.458Z,42.57
2018-03-02T09:02:09.770Z,41.17
2018-03-02T09:04:38.118Z,41.70
2018-03-02T09:07:06.466Z,44.33
2018-03-02T09:09:34.793Z,45.40
2018-03-02T09:12:03.127Z,44.77
2018-03-02T09:14:31.465Z,45.60
2018-03-02T09:16:59.795Z,43.03
2018-03-02T09:19:28.113Z,45.33
2018-03-02T09:21:56.466Z,43.70
2018-03-02T09:24:24.797Z,43.37
2018-03-02T09:26:53.118Z,46.17
2018-03-02T09:29:21.463Z,46.03
2018-03-02T09:31:49.799Z,47.23
2018-03-02T09:34:18.131Z,41.10
2018-03-02T09:36:46.458Z,40.77
2018-03-02T09:39:14.783Z,42.20
2018-03-02T09:41:43.286Z,42.40
2018-03-02T09:44:11.629Z,42.80
2018-03-02T09:46:39.969Z,44.40
2018-03-02T09:49:08.335Z,43.40
2018-03-02T09:51:36.674Z,45.60
2018-03-02T09:54:05.026Z,43.37
2018-03-02T09:56:33.366Z,42.90
2018-03-02T09:59:01.692Z,43.60
2018-03-02T10:01:30.029Z,43.63
2018-03-02T10:03:58.351Z,42.70
2018-03-02T10:06:26.699Z,43.20
2018-03-02T10:08:55.067Z,40.83
2018-03-02T10:11:23.394Z,45.97
2018-03-02T10:13:51.730Z,46.57
2018-03-02T10:16:20.098Z,43.87
2018-03-02T10:18:48.421Z,42.33
2018-03-02T10:21:16.806Z,42.80
2018-03-02T10:23:45.111Z,44.13
2018-03-02T10:26:13.450Z,40.30
2018-03-02T10:28:41.978Z,43.77
2018-03-02T10:31:10.319Z,41.37
2018-03-02T10:33:38.654Z,47.03
2018-03-02T10:36:07.002Z,46.47
2018-03-02T10:38:35.331Z,45.87
2018-03-02T10:41:03.671Z,41.37
2018-03-02T10:43:32.004Z,43.13
2018-03-02T10:46:00.733Z,44.90
2018-03-02T10:48:29.055Z,44.67
2018-03-02T10:50:57.374Z,41.17
2018-03-02T10:53:25.710Z,42.33
2018-03-02T10:55:54.030Z,42.87
2018-03-02T10:58:22.380Z,41.63
2018-03-02T11:00:51.666Z,45.20
2018-03-02T11:03:22.777Z,39.90
2018-03-02T11:05:51.161Z,41.40
2018-03-02T11:08:19.515Z,45.00
2018-03-02T11:10:47.834Z,42.40
2018-03-02T11:13:16.186Z,46.00
2018-03-02T11:15:44.559Z,42.10
2018-03-02T11:18:12.909Z,41.33
2018-03-02T11:20:41.241Z,40.70
2018-03-02T11:23:09.584Z,42.13
2018-03-02T11:25:37.923Z,43.60
2018-03-02T11:28:06.247Z,38.03
2018-03-02T11:30:34.687Z,39.83
2018-03-02T11:33:03.018Z,41.80
2018-03-02T11:35:31.451Z,40.57
2018-03-02T11:37:59.722Z,41.80
2018-03-02T11:40:28.039Z,40.40
2018-03-02T11:42:56.380Z,37.10
2018-03-02T11:45:24.699Z,38.77
2018-03-02T11:47:53.050Z,38.83
2018-03-02T11:50:21.388Z,37.47
2018-03-02T11:52:49.727Z,39.60
2018-03-02T11:55:18.068Z,38.60
2018-03-02T11:57:46.411Z,40.80
2018-03-02T12:00:14.719Z,38.73
2018-03-02T12:02:43.104Z,43.60
2018-03-02T12:05:11.419Z,40.30
2018-03-02T12:07:39.849Z,41.07
2018-03-02T12:10:08.172Z,41.67
2018-03-02T12:12:36.518Z,44.77
2018-03-02T12:15:04.846Z,43.27
2018-03-02T12:17:33.190Z,45.20
2018-03-02T12:20:01.516Z,43.70
2018-03-02T12:22:29.872Z,44.00
2018-03-02T12:24:58.201Z,44.60
2018-03-02T12:27:26.523Z,46.37
2018-03-02T12:29:54.863Z,45.20
2018-03-02T12:32:23.191Z,41.13
2018-03-02T12:34:51.521Z,45.47
2018-03-02T12:37:19.839Z,44.97
2018-03-02T12:39:48.175Z,46.37
2018-03-02T12:42:16.503Z,46.53
2018-03-02T12:44:44.909Z,43.90
2018-03-02T12:47:13.234Z,44.80
2018-03-02T12:49:41.547Z,46.70
2018-03-02T12:52:09.896Z,47.00
2018-03-02T12:54:38.255Z,46.67
2018-03-02T12:57:06.558Z,46.73
2018-03-02T12:59:34.950Z,49.57
2018-03-02T13:02:03.301Z,47.23
2018-03-02T13:04:31.638Z,47.37
2018-03-02T13:06:59.984Z,48.07
2018-03-02T13:09:28.320Z,46.77
2018-03-02T13:11:56.667Z,49.20
2018-03-02T13:14:24.995Z,49.87
2018-03-02T13:16:53.329Z,49.20
2018-03-02T13:19:21.676Z,50.23
2018-03-02T13:21:50.005Z,47.40
2018-03-02T13:24:18.340Z,48.50
2018-03-02T13:26:58.569Z,48.73
2018-03-02T13:29:26.906Z,49.63
2018-03-02T13:31:55.236Z,53.83
2018-03-02T13:34:35.402Z,52.77
2018-03-02T13:37:03.725Z,51.77
2018-03-02T13:39:43.984Z,51.90
2018-03-02T13:42:12.295Z,52.93
2018-03-02T13:44:40.647Z,53.37
2018-03-02T13:47:08.959Z,50.60
2018-03-02T13:49:49.193Z,50.10
2018-03-02T13:52:17.511Z,49.70
2018-03-02T13:54:45.895Z,49.00
2018-03-02T13:57:25.909Z,50.53
2018-03-02T13:59:54.253Z,49.80
2018-03-02T14:02:34.428Z,50.00
2018-03-02T14:05:02.766Z,48.90
2018-03-02T14:07:31.081Z,48.07
2018-03-02T14:10:00.289Z,48.90
2018-03-02T14:12:28.593Z,48.23
2018-03-02T14:14:56.935Z,44.93
2018-03-02T14:17:25.300Z,46.80
2018-03-02T14:19:53.630Z,46.20
2018-03-02T14:22:21.958Z,45.97
2018-03-02T14:24:50.294Z,45.80
2018-03-02T14:27:18.624Z,44.90
2018-03-02T14:29:47.158Z,44.10
2018-03-02T14:32:15.498Z,45.30
2018-03-02T14:34:43.816Z,46.13
2018-03-02T14:37:12.164Z,43.03
2018-03-02T14:39:40.493Z,45.37
2018-03-02T14:42:08.860Z,45.53
2018-03-02T14:44:37.200Z,52.03
2018-03-02T14:47:05.562Z,49.20
2018-03-02T14:49:33.881Z,54.03
2018-03-02T14:52:02.297Z,55.70
2018-03-02T14:54:30.613Z,47.70
2018-03-02T14:56:58.959Z,46.00
2018-03-02T14:59:27.274Z,45.77
2018-03-02T15:01:55.614Z,53.20
2018-03-02T15:04:23.957Z,53.03
2018-03-02T15:06:52.293Z,49.77
2018-03-02T15:09:20.708Z,49.70
2018-03-02T15:11:49.152Z,47.20
2018-03-02T15:14:17.558Z,53.63
2018-03-02T15:16:45.906Z,55.25
2018-03-02T15:19:14.264Z,56.05
2018-03-02T15:21:42.637Z,55.22
2018-03-02T15:24:11.135Z,55.10
2018-03-02T15:26:39.494Z,48.50
2018-03-02T15:29:07.819Z,48.40
2018-03-02T15:31:36.201Z,53.53
2018-03-02T15:34:04.523Z,49.13
2018-03-02T15:36:32.899Z,47.97
2018-03-02T15:39:01.261Z,46.00
2018-03-02T15:41:29.583Z,44.60
2018-03-02T15:43:57.959Z,47.70
2018-03-02T15:46:26.304Z,45.53
2018-03-02T15:48:54.662Z,48.87
2018-03-02T15:51:22.984Z,46.83
2018-03-02T15:53:51.358Z,45.90
2018-03-02T15:56:19.701Z,46.50
2018-03-02T15:58:48.063Z,48.23
2018-03-02T16:01:16.409Z,46.00
2018-03-02T16:03:44.768Z,46.77
2018-03-02T16:06:13.095Z,48.10
2018-03-02T16:08:41.452Z,44.80
2018-03-02T16:11:09.773Z,47.50
2018-03-02T16:13:38.145Z,48.90
2018-03-02T16:16:06.473Z,47.50
2018-03-02T16:18:34.797Z,47.80
2018-03-02T16:21:03.199Z,46.60
2018-03-02T16:23:31.511Z,49.37
2018-03-02T16:25:59.913Z,46.90
2018-03-02T16:28:28.210Z,45.90
2018-03-02T16:30:56.590Z,44.77
2018-03-02T16:33:24.921Z,46.10
2018-03-02T16:35:53.277Z,44.60
2018-03-02T16:38:21.630Z,49.53
2018-03-02T16:40:49.982Z,45.70
2018-03-02T16:43:18.324Z,45.60
2018-03-02T16:45:46.682Z,46.93
2018-03-02T16:48:15.014Z,49.50
2018-03-02T16:50:43.440Z,51.30
2018-03-02T16:53:11.755Z,48.07
2018-03-02T16:55:40.119Z,47.37
2018-03-02T16:58:08.436Z,47.30
2018-03-02T17:00:36.814Z,46.30
2018-03-02T17:03:05.144Z,46.40
2018-03-02T17:05:33.496Z,47.20
2018-03-02T17:08:01.875Z,44.83
2018-03-02T17:10:30.218Z,42.63
2018-03-02T17:12:58.552Z,44.43
2018-03-02T17:15:26.886Z,45.37
2018-03-02T17:17:55.358Z,45.60
2018-03-02T17:20:23.690Z,45.23
2018-03-02T17:22:52.041Z,44.57
2018-03-02T17:25:20.360Z,43.80
2018-03-02T17:27:48.709Z,44.63
2018-03-02T17:30:17.721Z,45.73
2018-03-02T17:32:46.059Z,54.75
2018-03-02T17:35:14.387Z,50.00
2018-03-02T17:37:42.743Z,43.07
2018-03-02T17:40:11.071Z,46.70
2018-03-02T17:42:39.436Z,55.12
2018-03-02T17:45:07.771Z,58.63
2018-03-02T17:47:36.126Z,57.67
2018-03-02T17:50:04.473Z,54.73
2018-03-02T17:52:32.842Z,48.80
2018-03-02T17:55:01.172Z,49.87
2018-03-02T17:57:29.523Z,48.10
2018-03-02T17:59:57.857Z,48.47
2018-03-02T18:02:26.201Z,49.83
2018-03-02T18:04:54.565Z,51.17
2018-03-02T18:07:22.905Z,48.67
2018-03-02T18:09:51.250Z,47.93
2018-03-02T18:12:19.637Z,51.27
2018-03-02T18:14:47.984Z,50.37
2018-03-02T18:17:16.302Z,51.13
2018-03-02T18:19:44.666Z,51.07
2018-03-02T18:22:12.974Z,49.60
2018-03-02T18:24:41.374Z,52.77
2018-03-02T18:27:09.672Z,49.47
2018-03-02T18:29:38.006Z,52.93
2018-03-02T18:32:06.337Z,61.60
2018-03-02T18:34:34.680Z,64.18
2018-03-02T18:37:03.012Z,58.90
2018-03-02T18:39:31.365Z,52.10
2018-03-02T18:41:59.710Z,52.00
2018-03-02T18:44:28.048Z,51.30
2018-03-02T18:46:56.395Z,52.77
2018-03-02T18:49:24.745Z,53.93
2018-03-02T18:51:53.103Z,54.97
2018-03-02T18:54:21.436Z,52.00
2018-03-02T18:56:49.774Z,54.57
2018-03-02T18:59:18.117Z,56.20
2018-03-02T19:01:46.467Z,52.40
2018-03-02T19:04:14.874Z,56.07
2018-03-02T19:06:43.206Z,54.80
2018-03-02T19:09:11.556Z,53.57
2018-03-02T19:11:39.888Z,57.30
2018-03-02T19:14:08.268Z,57.90
2018-03-02T19:16:36.607Z,58.47
2018-03-02T19:19:04.938Z,170.70
2018-03-02T19:21:33.310Z,89.63
2018-03-02T19:24:01.652Z,68.50
2018-03-02T19:26:30.015Z,53.90
2018-03-02T19:28:58.353Z,56.00
2018-03-02T19:31:26.700Z,59.67
2018-03-02T19:33:55.038Z,57.70
2018-03-02T19:36:23.383Z,58.10
2018-03-02T19:38:51.717Z,59.03
2018-03-02T19:41:20.070Z,55.97
2018-03-02T19:43:48.408Z,58.90
2018-03-02T19:46:16.776Z,61.50
2018-03-02T19:48:45.110Z,58.70
2018-03-02T19:51:13.473Z,58.43
2018-03-02T19:53:41.819Z,60.40
2018-03-02T19:56:10.176Z,62.90
2018-03-02T19:58:38.515Z,61.83
2018-03-02T20:01:06.892Z,59.60
2018-03-02T20:03:35.221Z,60.93
2018-03-02T20:06:03.583Z,62.40
2018-03-02T20:08:31.913Z,60.03
2018-03-02T20:11:00.275Z,61.93
2018-03-02T20:13:28.610Z,63.90
2018-03-02T20:15:56.992Z,65.47
2018-03-02T20:18:25.355Z,63.77
2018-03-02T20:20:53.684Z,61.37
2018-03-02T20:23:22.038Z,62.57
2018-03-02T20:25:50.390Z,60.20
2018-03-02T20:28:18.746Z,60.50
2018-03-02T20:30:47.089Z,64.63
2018-03-02T20:33:15.468Z,64.97
2018-03-02T20:35:43.825Z,60.47
2018-03-02T20:38:12.163Z,67.37
2018-03-02T20:40:40.504Z,62.17
2018-03-02T20:43:08.863Z,63.47
2018-03-02T20:45:37.203Z,65.17
2018-03-02T20:48:05.553Z,67.37
2018-03-02T20:50:33.885Z,72.13
2018-03-02T20:53:02.247Z,76.67
2018-03-02T20:55:30.582Z,74.40
2018-03-02T20:57:58.939Z,73.30
2018-03-02T21:00:27.271Z,74.13
2018-03-02T21:02:55.622Z,76.53
2018-03-02T21:05:23.964Z,72.60
2018-03-02T21:07:52.422Z,75.90
2018-03-02T21:10:20.760Z,75.53
2018-03-02T21:12:49.121Z,71.47
2018-03-02T21:15:17.456Z,78.83
2018-03-02T21:17:45.797Z,74.80
2018-03-02T21:20:14.956Z,74.30
2018-03-02T21:22:43.289Z,71.53
2018-03-02T21:25:11.649Z,73.80
2018-03-02T21:27:39.986Z,75.00
2018-03-02T21:30:08.341Z,76.00
2018-03-02T21:32:36.663Z,74.30
2018-03-02T21:35:05.023Z,80.60
2018-03-02T21:37:33.362Z,73.23
2018-03-02T21:40:01.719Z,75.97
2018-03-02T21:42:30.055Z,72.87
2018-03-02T21:44:58.412Z,76.03
2018-03-02T21:47:26.754Z,77.03
2018-03-02T21:49:56.050Z,73.70
2018-03-02T21:52:24.399Z,77.43
2018-03-02T21:54:52.738Z,77.13
2018-03-02T21:57:22.118Z,75.40
2018-03-02T21:59:50.502Z,73.30
2018-03-02T22:02:18.846Z,78.30
2018-03-02T22:04:47.201Z,79.10
2018-03-02T22:07:15.538Z,79.90
2018-03-02T22:09:43.910Z,79.80
2018-03-02T22:12:12.249Z,80.13
2018-03-02T22:14:40.603Z,79.63
2018-03-02T22:17:08.933Z,80.47
2018-03-02T22:19:37.281Z,80.33
2018-03-02T22:22:05.768Z,82.67
2018-03-02T22:24:34.095Z,78.53
2018-03-02T22:27:02.438Z,78.17
2018-03-02T22:29:30.778Z,80.90
2018-03-02T22:31:59.142Z,82.27
2018-03-02T22:34:27.485Z,81.70
2018-03-02T22:36:55.846Z,82.47
2018-03-02T22:39:24.179Z,84.23
2018-03-02T22:41:52.582Z,79.97
2018-03-02T22:44:20.902Z,81.80
2018-03-02T22:46:49.267Z,77.57
2018-03-02T22:49:17.607Z,79.57
2018-03-02T22:51:45.986Z,77.80
2018-03-02T22:54:14.313Z,80.43
2018-03-02T22:56:42.661Z,82.30
2018-03-02T22:59:11.017Z,81.90
2018-03-02T23:01:39.390Z,82.20
2018-03-02T23:04:07.730Z,79.80
2018-03-02T23:06:36.086Z,83.80
2018-03-02T23:09:04.426Z,80.07
2018-03-02T23:11:32.796Z,81.30
2018-03-02T23:14:01.140Z,84.30
2018-03-02T23:16:29.550Z,81.70
2018-03-02T23:18:57.913Z,75.00
2018-03-02T23:21:26.249Z,79.37
2018-03-02T23:23:54.609Z,74.37
2018-03-02T23:26:22.964Z,74.60
2018-03-02T23:28:51.566Z,74.83
2018-03-02T23:31:19.905Z,79.13
2018-03-02T23:33:48.261Z,84.57
2018-03-02T23:36:16.582Z,78.30
2018-03-02T23:38:44.938Z,77.97
2018-03-02T23:41:13.278Z,78.77
2018-03-02T23:43:41.626Z,82.87
2018-03-02T23:46:09.966Z,82.00
2018-03-02T23:48:38.323Z,79.90
2018-03-02T23:51:06.662Z,82.67
2018-03-02T23:53:35.020Z,79.20
2018-03-02T23:56:03.357Z,80.73
2018-03-02T23:58:31.839Z,77.47
